Time;durP1;ratioP1;P1;durP2;ratioP2;P2;SDS_P1;SDS_P2;PMS_P1;PMS_P2;Temp;Humidity;BMP_temperature;BMP_pressure;BME280_temperature;BME280_humidity;BME280_pressure;Samples;Min_cycle;Max_cycle;Signal;HPM_P1;HPM_P2
2023/06/15 00:00:18;;;;;;;9.32;6.18;;;;;;;16.89;60.47;100665.66;5139385;27;20654;-47
2023/06/15 00:02:45;;;;;;;10.98;7.60;;;;;;;16.85;60.11;100666.59;5141303;27;20092;-47
2023/06/15 00:05:12;;;;;;;14.15;7.40;;;;;;;16.86;60.31;100670.09;5131367;27;20506;-45
2023/06/15 00:07:39;;;;;;;10.20;6.82;;;;;;;16.80;60.52;100658.84;5137875;27;20048;-46
2023/06/15 00:10:07;;;;;;;10.75;7.63;;;;;;;16.79;60.11;100659.72;5133926;27;20729;-46
2023/06/15 00:12:34;;;;;;;10.55;5.45;;;;;;;16.78;60.37;100662.38;5128248;27;20340;-45
2023/06/15 00:15:02;;;;;;;10.65;5.00;;;;;;;16.76;60.51;100665.03;5135973;27;20638;-48
2023/06/15 00:17:30;;;;;;;10.07;6.70;;;;;;;16.74;60.43;100666.81;5109458;28;20054;-46
2023/06/15 00:20:00;;;;;;;12.15;6.93;;;;;;;16.73;60.07;100656.38;5132284;27;20055;-47
2023/06/15 00:22:28;;;;;;;20.33;6.43;;;;;;;16.70;60.72;100654.69;5116820;27;20192;-47
2023/06/15 00:24:55;;;;;;;13.77;7.78;;;;;;;16.67;61.22;100652.13;5122509;27;20120;-46
2023/06/15 00:27:22;;;;;;;9.88;6.07;;;;;;;16.63;60.92;100659.16;5121419;27;20401;-45
2023/06/15 00:29:49;;;;;;;9.27;6.22;;;;;;;16.59;60.99;100657.50;5108655;27;20044;-47
2023/06/15 00:32:15;;;;;;;12.43;6.47;;;;;;;16.56;61.11;100652.31;5112868;27;20065;-46
2023/06/15 00:34:45;;;;;;;8.45;6.63;;;;;;;16.54;60.86;100659.31;5117466;27;20062;-46
2023/06/15 00:37:12;;;;;;;9.90;7.15;;;;;;;16.50;61.58;100653.28;5122231;27;20143;-48
2023/06/15 00:39:40;;;;;;;11.32;7.43;;;;;;;16.48;61.68;100654.22;5125185;27;20045;-46
2023/06/15 00:42:07;;;;;;;8.15;5.45;;;;;;;16.44;61.08;100659.50;5118165;27;20615;-49
2023/06/15 00:44:33;;;;;;;11.40;6.82;;;;;;;16.41;61.21;100662.16;5120626;27;20049;-45
2023/06/15 00:47:00;;;;;;;12.27;8.15;;;;;;;16.37;61.73;100657.88;5122705;27;20046;-47
2023/06/15 00:49:28;;;;;;;11.55;7.43;;;;;;;16.35;61.83;100662.25;5126552;27;20452;-46
2023/06/15 00:51:56;;;;;;;10.52;7.07;;;;;;;16.32;60.81;100659.72;5123110;27;20047;-47
2023/06/15 00:54:24;;;;;;;12.75;7.05;;;;;;;16.29;61.52;100655.41;5119630;27;20351;-45
2023/06/15 00:56:51;;;;;;;13.55;7.45;;;;;;;16.26;62.08;100651.97;5118716;27;20078;-47
2023/06/15 00:59:19;;;;;;;12.05;6.93;;;;;;;16.24;61.33;100654.59;5119170;27;20057;-46
2023/06/15 01:01:47;;;;;;;8.93;7.22;;;;;;;16.22;61.91;100650.28;5118294;27;20848;-45
2023/06/15 01:04:14;;;;;;;15.15;6.75;;;;;;;16.17;61.47;100656.44;5114233;27;21917;-46
2023/06/15 01:06:51;;;;;;;11.88;6.45;;;;;;;16.14;61.71;100650.44;5117931;27;20050;-47
2023/06/15 01:09:21;;;;;;;12.98;7.60;;;;;;;16.10;62.01;100648.72;5095414;27;20035;-47
2023/06/15 01:11:54;;;;;;;13.77;7.53;;;;;;;16.06;61.58;100655.75;5120016;27;20044;-45
2023/06/15 01:14:25;;;;;;;12.50;6.97;;;;;;;16.05;61.82;100651.44;5117051;27;20070;-46
2023/06/15 01:17:00;;;;;;;12.55;6.80;;;;;;;16.00;62.15;100663.69;5117193;27;20136;-47
2023/06/15 01:19:54;;;;;;;11.15;7.38;;;;;;;15.94;61.54;100659.38;5118423;27;20516;-45
2023/06/15 01:22:34;;;;;;;11.35;6.97;;;;;;;15.93;61.94;100658.53;5124663;27;20043;-46
2023/06/15 01:25:08;;;;;;;14.15;7.97;;;;;;;15.92;62.06;100659.44;5120424;27;20043;-46
2023/06/15 01:27:36;;;;;;;19.83;7.70;;;;;;;15.89;62.04;100656.88;5115684;27;20055;-46
2023/06/15 01:30:04;;;;;;;15.25;8.00;;;;;;;15.88;61.81;100657.72;5115489;27;20050;-47
2023/06/15 01:32:33;;;;;;;17.35;8.63;;;;;;;15.84;62.73;100653.44;5117936;27;20051;-45
2023/06/15 01:35:00;;;;;;;12.90;7.93;;;;;;;15.81;62.64;100658.72;5116372;27;20050;-46
2023/06/15 01:37:27;;;;;;;13.10;7.68;;;;;;;15.78;62.54;100662.22;5121107;27;20049;-46
2023/06/15 01:39:55;;;;;;;11.20;7.53;;;;;;;15.76;62.42;100655.31;5125010;27;20494;-48
2023/06/15 01:42:23;;;;;;;16.10;7.53;;;;;;;15.74;62.41;100652.72;5126703;27;20047;-48
2023/06/15 01:44:52;;;;;;;12.90;6.50;;;;;;;15.72;62.97;100651.88;5124684;27;20407;-46
2023/06/15 01:47:20;;;;;;;12.77;7.28;;;;;;;15.70;62.89;100651.03;5119602;27;20421;-47
2023/06/15 01:49:47;;;;;;;14.80;7.70;;;;;;;15.70;62.99;100655.41;5124393;27;20426;-46
2023/06/15 01:52:15;;;;;;;12.80;7.35;;;;;;;15.66;63.03;100650.22;5114637;27;20109;-48
2023/06/15 01:54:42;;;;;;;10.55;7.00;;;;;;;15.64;62.88;100654.59;5122650;27;20051;-47
2023/06/15 01:57:10;;;;;;;14.98;8.38;;;;;;;15.60;62.92;100650.31;5126427;27;20058;-45
2023/06/15 01:59:37;;;;;;;12.60;8.52;;;;;;;15.59;63.37;100659.03;5116458;27;20104;-46
2023/06/15 02:02:04;;;;;;;12.00;7.88;;;;;;;15.58;63.11;100657.31;5126468;27;20090;-46
2023/06/15 02:04:31;;;;;;;11.70;7.38;;;;;;;15.55;63.07;100657.34;5127214;27;20826;-45
2023/06/15 02:06:58;;;;;;;10.90;8.07;;;;;;;15.53;63.16;100659.09;5120202;27;20148;-45
2023/06/15 02:09:25;;;;;;;11.20;7.30;;;;;;;15.48;63.30;100663.53;5117674;27;20074;-48
2023/06/15 02:11:51;;;;;;;15.23;8.57;;;;;;;15.47;63.83;100669.63;5120351;27;20088;-45
2023/06/15 02:14:19;;;;;;;11.38;7.22;;;;;;;15.46;63.40;100660.94;5125373;27;20051;-45
2023/06/15 02:16:48;;;;;;;12.50;7.25;;;;;;;15.43;64.18;100660.97;5121224;27;20518;-46
2023/06/15 02:19:21;;;;;;;9.07;5.60;;;;;;;15.38;63.99;100658.44;5130544;27;20672;-47
2023/06/15 02:21:50;;;;;;;14.93;8.07;;;;;;;15.35;64.07;100658.47;5123143;27;20043;-46
2023/06/15 02:24:17;;;;;;;16.33;7.95;;;;;;;15.30;64.10;100662.88;5119204;27;20039;-47
2023/06/15 02:26:45;;;;;;;13.43;7.13;;;;;;;15.27;64.12;100662.94;5120464;27;20063;-46
2023/06/15 02:29:12;;;;;;;10.40;6.97;;;;;;;15.24;64.12;100658.63;5121094;27;20043;-46
2023/06/15 02:31:39;;;;;;;20.88;9.15;;;;;;;15.23;64.43;100666.47;5128200;27;20050;-46
2023/06/15 02:34:06;;;;;;;12.60;7.53;;;;;;;15.20;64.66;100661.28;5125272;27;20057;-48
2023/06/15 02:36:34;;;;;;;109.47;9.07;;;;;;;15.16;64.65;100661.31;5119684;27;20047;-44
2023/06/15 02:39:02;;;;;;;12.88;7.22;;;;;;;15.14;64.68;100657.84;5103097;27;20044;-46
2023/06/15 02:41:29;;;;;;;13.52;7.80;;;;;;;15.12;64.09;100662.22;5114353;27;20051;-46
2023/06/15 02:43:56;;;;;;;11.68;8.00;;;;;;;15.11;64.43;100668.34;5123053;27;20445;-46
2023/06/15 02:46:23;;;;;;;13.00;7.45;;;;;;;15.10;64.40;100666.59;5124674;27;20556;-47
2023/06/15 02:48:51;;;;;;;11.25;7.32;;;;;;;15.10;64.44;100674.41;5121648;27;20055;-46
2023/06/15 02:51:19;;;;;;;12.07;8.60;;;;;;;15.06;64.36;100659.69;5116463;27;20047;-46
2023/06/15 02:53:47;;;;;;;15.57;8.30;;;;;;;15.04;64.27;100664.06;5118790;27;20128;-47
2023/06/15 02:56:18;;;;;;;12.55;7.72;;;;;;;15.02;64.95;100661.47;5121751;27;20054;-46
2023/06/15 02:58:47;;;;;;;14.63;7.63;;;;;;;15.03;64.71;100667.56;5117389;27;20055;-49
2023/06/15 03:01:16;;;;;;;12.45;8.05;;;;;;;14.99;65.13;100656.28;5098368;27;20082;-46
2023/06/15 03:03:43;;;;;;;13.93;8.73;;;;;;;14.98;64.92;100662.38;5121687;27;20063;-47
2023/06/15 03:06:10;;;;;;;12.45;7.28;;;;;;;14.95;64.35;100656.31;5117814;27;20055;-46
2023/06/15 03:08:38;;;;;;;24.70;8.10;;;;;;;14.92;64.86;100665.06;5116581;28;20690;-45
2023/06/15 03:11:04;;;;;;;20.83;7.72;;;;;;;14.89;64.75;100665.09;5113743;27;20414;-46
2023/06/15 03:13:31;;;;;;;129.30;9.60;;;;;;;14.86;64.11;100660.78;5116693;28;20497;-45
2023/06/15 03:16:00;;;;;;;69.78;8.05;;;;;;;14.83;65.07;100663.41;5112637;27;20111;-45
2023/06/15 03:18:29;;;;;;;9.57;6.72;;;;;;;14.83;65.07;100663.41;5113632;27;20681;-46
2023/06/15 03:20:57;;;;;;;10.52;7.15;;;;;;;14.77;64.51;100659.13;5113725;28;20039;-46
2023/06/15 03:23:24;;;;;;;7.95;6.57;;;;;;;14.76;64.48;100667.78;5114581;28;20046;-49
2023/06/15 03:25:52;;;;;;;15.23;7.97;;;;;;;14.71;64.07;100660.91;5111490;27;20043;-46
2023/06/15 03:28:23;;;;;;;10.40;7.07;;;;;;;14.70;64.61;100661.78;5118251;28;20047;-46
2023/06/15 03:30:52;;;;;;;12.70;7.50;;;;;;;14.67;64.56;100659.19;5112185;27;20092;-46
2023/06/15 03:33:21;;;;;;;16.75;8.00;;;;;;;14.64;65.17;100666.19;5112179;27;20044;-46
2023/06/15 03:35:48;;;;;;;11.07;7.28;;;;;;;14.61;65.12;100666.22;5113848;28;20043;-47
2023/06/15 03:38:17;;;;;;;12.73;7.25;;;;;;;14.60;65.28;100663.63;5098060;28;20050;-45
2023/06/15 03:40:43;;;;;;;17.17;7.60;;;;;;;14.57;64.58;100672.34;5120795;28;20075;-44
2023/06/15 03:43:11;;;;;;;12.23;7.88;;;;;;;14.56;65.26;100670.59;5123641;28;20050;-46
2023/06/15 03:45:38;;;;;;;13.25;8.63;;;;;;;14.53;64.94;100670.63;5106726;28;20042;-48
2023/06/15 03:48:04;;;;;;;8.80;7.00;;;;;;;14.51;64.37;100669.78;5114964;27;20852;-48
2023/06/15 03:50:32;;;;;;;11.70;7.55;;;;;;;14.49;65.34;100671.56;5114085;28;20132;-45
2023/06/15 03:52:58;;;;;;;11.93;8.02;;;;;;;14.49;64.62;100663.72;5119136;28;20047;-46
2023/06/15 03:55:26;;;;;;;11.95;7.72;;;;;;;14.47;65.28;100670.69;5120417;27;20050;-46
2023/06/15 03:57:52;;;;;;;11.68;7.68;;;;;;;14.46;65.23;100674.19;5127114;27;20047;-45
2023/06/15 04:00:20;;;;;;;40.33;8.52;;;;;;;14.44;65.39;100674.19;5127102;27;20047;-46
2023/06/15 04:02:47;;;;;;;15.27;6.95;;;;;;;14.42;65.41;100675.09;5126734;27;20498;-46
2023/06/15 04:05:13;;;;;;;16.33;7.65;;;;;;;14.39;65.53;100674.22;5123263;27;20047;-45
2023/06/15 04:07:40;;;;;;;10.77;6.88;;;;;;;14.38;65.65;100672.50;5118657;27;20047;-46
2023/06/15 04:10:08;;;;;;;15.13;8.52;;;;;;;14.34;66.15;100670.78;5123380;27;20085;-45
2023/06/15 04:12:35;;;;;;;11.50;7.53;;;;;;;14.33;65.69;100668.19;5115993;27;20055;-45
2023/06/15 04:15:02;;;;;;;13.15;7.90;;;;;;;14.33;65.63;100674.28;5121846;27;20067;-45
2023/06/15 04:17:29;;;;;;;13.90;7.20;;;;;;;14.31;65.49;100676.03;5125920;27;20050;-44
2023/06/15 04:19:55;;;;;;;13.57;6.85;;;;;;;14.32;66.35;100676.91;5123030;27;20039;-45
2023/06/15 04:22:22;;;;;;;13.82;7.50;;;;;;;14.32;66.11;100674.28;5119007;27;20058;-47
2023/06/15 04:24:51;;;;;;;12.57;6.60;;;;;;;14.33;65.92;100676.91;5117530;27;20457;-44
2023/06/15 04:27:18;;;;;;;15.18;7.53;;;;;;;14.31;65.41;100678.63;5120632;27;20048;-45
2023/06/15 04:29:49;;;;;;;15.48;7.55;;;;;;;14.30;66.62;100678.63;5121247;27;20059;-46
2023/06/15 04:32:17;;;;;;;13.27;7.72;;;;;;;14.28;66.02;100678.66;5126705;27;20051;-47
2023/06/15 04:34:45;;;;;;;12.20;7.55;;;;;;;14.31;66.35;100678.63;5126403;27;20524;-45
2023/06/15 04:37:13;;;;;;;12.70;7.55;;;;;;;14.33;66.38;100674.28;5120144;27;20109;-47
2023/06/15 04:39:40;;;;;;;9.88;7.18;;;;;;;14.34;65.83;100678.63;5100274;27;20128;-46
2023/06/15 04:42:09;;;;;;;9.45;7.05;;;;;;;14.37;66.83;100685.53;5115916;27;20086;-47
2023/06/15 04:44:35;;;;;;;9.88;7.13;;;;;;;14.42;66.87;100678.53;5115232;27;20047;-46
2023/06/15 04:47:04;;;;;;;10.82;7.38;;;;;;;14.46;66.47;100684.59;5117399;27;20051;-46
2023/06/15 04:49:31;;;;;;;11.68;6.70;;;;;;;14.53;66.62;100694.09;5115524;27;20546;-46
2023/06/15 04:51:58;;;;;;;11.30;6.93;;;;;;;14.58;66.67;100694.91;5118616;27;20051;-46
2023/06/15 04:54:25;;;;;;;15.65;5.90;;;;;;;14.65;66.10;100688.75;5121616;27;20436;-47
2023/06/15 04:56:52;;;;;;;13.73;7.18;;;;;;;14.72;66.36;100691.28;5123328;27;20084;-46
2023/06/15 04:59:18;;;;;;;11.80;6.75;;;;;;;14.78;66.67;100693.88;5119765;27;20039;-47
2023/06/15 05:01:46;;;;;;;13.15;7.28;;;;;;;14.85;66.34;100703.38;5121753;27;20047;-46
2023/06/15 05:04:12;;;;;;;10.98;7.45;;;;;;;14.91;66.64;100694.63;5120889;27;20050;-45
2023/06/15 05:06:39;;;;;;;10.40;7.28;;;;;;;14.98;66.42;100696.31;5105432;27;21238;-46
2023/06/15 05:09:06;;;;;;;14.82;7.80;;;;;;;15.05;66.72;100694.47;5119523;27;20054;-45
2023/06/15 05:11:33;;;;;;;10.32;7.85;;;;;;;15.12;66.54;100696.16;5117815;27;20043;-45
2023/06/15 05:14:01;;;;;;;15.35;8.90;;;;;;;15.21;67.00;100704.75;5121249;27;20182;-46
2023/06/15 05:16:28;;;;;;;13.65;7.00;;;;;;;15.27;66.91;100699.47;5124204;27;20051;-47
2023/06/15 05:18:54;;;;;;;12.05;8.10;;;;;;;15.38;67.33;100709.78;5124829;27;20047;-47
2023/06/15 05:21:21;;;;;;;13.43;7.90;;;;;;;15.46;67.04;100704.44;5115375;27;20055;-46
2023/06/15 05:23:48;;;;;;;11.30;8.00;;;;;;;15.56;67.07;100711.28;5123744;27;20638;-48
2023/06/15 05:26:15;;;;;;;13.57;7.55;;;;;;;15.66;67.20;100705.06;5119086;27;20151;-46
2023/06/15 05:28:44;;;;;;;;;;;;;;;15.62;67.33;100711.22;5105241;27;20054;-47
2023/06/15 05:31:11;;;;;;;12.85;7.50;;;;;;;15.85;66.36;100707.44;5119593;27;19923;-46
2023/06/15 05:33:38;;;;;;;11.93;7.47;;;;;;;15.92;66.67;100708.19;5124049;27;20079;-47
2023/06/15 05:36:04;;;;;;;13.05;6.25;;;;;;;16.00;66.80;100706.34;5123847;27;20387;-47
2023/06/15 05:38:51;;;;;;;8.88;6.15;;;;;;;16.13;66.54;100707.03;5123290;27;20399;-47
2023/06/15 05:41:18;;;;;;;11.52;6.88;;;;;;;16.26;66.33;100712.06;5120351;27;20046;-47
2023/06/15 05:43:44;;;;;;;9.65;6.72;;;;;;;16.37;66.28;100704.91;5123488;27;20046;-47
2023/06/15 05:46:11;;;;;;;10.85;5.65;;;;;;;16.50;66.37;100702.09;5125201;27;20070;-46
2023/06/15 05:48:38;;;;;;;10.43;4.90;;;;;;;16.64;66.06;100705.34;5125672;27;20667;-47
2023/06/15 05:51:04;;;;;;;9.30;6.40;;;;;;;16.74;66.22;100699.94;5124061;27;20043;-47
2023/06/15 05:53:31;;;;;;;10.82;6.75;;;;;;;16.87;65.97;100697.97;5117537;27;20666;-47
2023/06/15 05:55:58;;;;;;;9.40;6.43;;;;;;;16.99;65.34;100707.34;5120306;27;20058;-46
2023/06/15 05:58:24;;;;;;;9.02;6.00;;;;;;;17.12;65.46;100703.63;5121052;27;20039;-47
2023/06/15 06:00:51;;;;;;;10.00;6.13;;;;;;;17.24;65.12;100704.28;5124907;27;20054;-47
2023/06/15 06:03:17;;;;;;;9.45;6.15;;;;;;;17.36;65.40;100701.41;5122498;27;20062;-48
2023/06/15 06:05:44;;;;;;;10.35;6.78;;;;;;;17.46;64.58;100707.31;5114043;27;20047;-46
2023/06/15 06:08:11;;;;;;;10.75;5.82;;;;;;;17.55;65.07;100701.88;5115475;27;20051;-48
2023/06/15 06:10:38;;;;;;;10.10;6.15;;;;;;;17.62;63.98;100705.22;5115451;27;20522;-48
2023/06/15 06:13:05;;;;;;;7.05;5.78;;;;;;;17.68;64.13;100707.72;5128620;27;20051;-45
2023/06/15 06:15:31;;;;;;;12.27;6.35;;;;;;;17.90;64.76;100711.63;5123804;27;20495;-48
2023/06/15 06:17:58;;;;;;;9.57;6.05;;;;;;;18.10;64.66;100708.56;5115751;27;20053;-46
2023/06/15 06:20:35;;;;;;;14.43;6.38;;;;;;;18.31;64.76;100711.56;5120136;27;20051;-46
2023/06/15 06:23:04;;;;;;;7.45;4.53;;;;;;;18.50;63.60;100707.59;5121101;27;20408;-46
2023/06/15 06:25:31;;;;;;;12.82;6.20;;;;;;;18.65;63.64;100705.50;5121140;27;20054;-46
2023/06/15 06:27:57;;;;;;;9.20;5.63;;;;;;;18.75;63.43;100706.94;5114387;27;20049;-46
2023/06/15 06:30:24;;;;;;;8.40;5.07;;;;;;;18.78;62.64;100707.78;5125576;27;20055;-46
2023/06/15 06:32:51;;;;;;;13.00;5.13;;;;;;;18.77;62.46;100713.94;5118069;27;20043;-46
2023/06/15 06:35:17;;;;;;;9.07;5.40;;;;;;;18.81;62.25;100716.41;5119970;27;20055;-46
2023/06/15 06:37:45;;;;;;;8.82;5.80;;;;;;;18.96;62.49;100714.28;5122429;27;20050;-46
2023/06/15 06:40:12;;;;;;;13.90;4.22;;;;;;;19.17;62.40;100712.88;5123012;27;20121;-45
2023/06/15 06:42:38;;;;;;;10.07;4.97;;;;;;;19.34;62.50;100708.91;5121547;27;20043;-46
2023/06/15 06:45:06;;;;;;;9.35;4.78;;;;;;;19.57;62.60;100716.13;5122335;27;20055;-46
2023/06/15 06:47:32;;;;;;;8.00;5.55;;;;;;;19.83;62.08;100721.47;5121908;27;20043;-45
2023/06/15 06:49:59;;;;;;;9.60;4.90;;;;;;;20.08;61.31;100715.47;5116191;27;20843;-46
2023/06/15 06:52:26;;;;;;;7.40;5.20;;;;;;;20.24;60.77;100721.97;5115981;27;20043;-46
2023/06/15 06:54:52;;;;;;;10.45;5.50;;;;;;;20.41;60.88;100720.56;5120227;27;20573;-46
2023/06/15 06:57:20;;;;;;;7.18;4.38;;;;;;;20.71;60.89;100719.56;5122518;27;20072;-46
2023/06/15 06:59:46;;;;;;;8.23;4.07;;;;;;;20.98;60.52;100727.44;5122038;27;20394;-45
2023/06/15 07:02:13;;;;;;;8.48;5.35;;;;;;;21.10;59.52;100721.72;5121640;27;20039;-48
2023/06/15 07:04:40;;;;;;;7.72;4.88;;;;;;;21.08;58.73;100722.69;5121170;27;20051;-47
2023/06/15 07:07:07;;;;;;;12.60;4.22;;;;;;;21.17;58.84;100722.34;5122918;27;21101;-49
2023/06/15 07:09:34;;;;;;;7.13;4.70;;;;;;;21.30;58.40;100728.91;5117347;27;20078;-47
2023/06/15 07:12:01;;;;;;;8.38;4.88;;;;;;;21.48;57.86;100731.75;5115203;27;20089;-47
2023/06/15 07:14:28;;;;;;;7.22;4.13;;;;;;;21.64;57.97;100723.25;5111801;27;20073;-47
2023/06/15 07:16:56;;;;;;;11.07;4.88;;;;;;;21.86;57.49;100730.38;5116865;28;20058;-46
2023/06/15 07:19:23;;;;;;;8.43;4.65;;;;;;;22.07;56.73;100729.53;5114986;28;20054;-48
2023/06/15 07:21:50;;;;;;;8.00;4.22;;;;;;;22.20;56.20;100729.03;5121542;28;20071;-46
2023/06/15 07:24:17;;;;;;;16.88;4.97;;;;;;;22.37;56.52;100730.09;5115085;28;20058;-47
2023/06/15 07:26:44;;;;;;;6.90;4.65;;;;;;;22.57;56.35;100732.81;5120356;28;20051;-45
2023/06/15 07:29:11;;;;;;;10.93;4.32;;;;;;;22.83;56.24;100733.47;5118457;27;20410;-46
2023/06/15 07:31:38;;;;;;;7.38;5.35;;;;;;;23.07;54.82;100725.38;5116732;27;20039;-48
2023/06/15 07:34:05;;;;;;;5.78;4.47;;;;;;;23.26;54.59;100739.56;5117790;27;20449;-46
2023/06/15 07:36:32;;;;;;;8.60;5.00;;;;;;;23.39;53.86;100739.88;5124281;27;20058;-49
2023/06/15 07:38:59;;;;;;;7.13;3.97;;;;;;;23.54;53.95;100738.34;5117361;27;20048;-48
2023/06/15 07:41:25;;;;;;;6.43;4.80;;;;;;;23.67;53.34;100733.34;5123033;27;20070;-48
2023/06/15 07:43:52;;;;;;;8.35;4.43;;;;;;;23.81;53.43;100741.44;5117404;27;20078;-46
2023/06/15 07:46:20;;;;;;;8.45;4.45;;;;;;;23.95;52.33;100742.59;5124419;27;20406;-46
2023/06/15 07:48:46;;;;;;;8.38;4.28;;;;;;;23.99;51.73;100739.72;5116162;27;20051;-47
2023/06/15 07:51:13;;;;;;;10.35;4.78;;;;;;;24.05;52.27;100743.88;5126882;27;20100;-49
2023/06/15 07:53:53;;;;;;;6.95;3.38;;;;;;;24.23;51.60;100747.44;5123569;27;20407;-47
2023/06/15 07:56:20;;;;;;;7.75;4.88;;;;;;;24.36;51.33;100747.69;5123234;27;20142;-46
2023/06/15 07:58:47;;;;;;;9.15;4.30;;;;;;;24.42;51.08;100741.22;5128244;27;20494;-46
2023/06/15 08:01:13;;;;;;;6.40;4.18;;;;;;;24.58;51.55;100749.22;5121885;27;20050;-48
2023/06/15 08:03:40;;;;;;;6.50;5.20;;;;;;;24.75;50.27;100736.91;5127815;27;20068;-49
2023/06/15 08:06:07;;;;;;;7.03;4.50;;;;;;;24.86;50.56;100745.19;5129684;27;20051;-47
2023/06/15 08:08:33;;;;;;;6.93;4.00;;;;;;;25.05;50.77;100744.22;5127808;27;20134;-49
2023/06/15 08:11:01;;;;;;;6.75;4.32;;;;;;;25.29;50.49;100746.50;5116788;27;20053;-47
2023/06/15 08:13:28;;;;;;;6.53;4.28;;;;;;;25.58;49.76;100736.16;5117575;27;20043;-48
2023/06/15 08:15:54;;;;;;;6.25;4.07;;;;;;;25.71;49.09;100746.06;5125595;27;20805;-48
2023/06/15 08:18:21;;;;;;;6.22;4.47;;;;;;;25.87;48.67;100741.59;5117033;27;20665;-47
2023/06/15 08:20:48;;;;;;;6.40;4.85;;;;;;;26.00;48.01;100746.25;5119309;27;20043;-47
2023/06/15 08:23:15;;;;;;;8.05;4.03;;;;;;;26.17;48.45;100748.75;5107338;27;20055;-48
2023/06/15 08:25:42;;;;;;;6.60;4.18;;;;;;;26.33;48.25;100737.28;5121130;27;20050;-47
2023/06/15 08:28:08;;;;;;;10.02;4.75;;;;;;;26.39;48.22;100742.25;5114875;27;20066;-48
2023/06/15 08:30:35;;;;;;;6.32;4.35;;;;;;;26.56;47.91;100737.72;5118269;27;20039;-46
2023/06/15 08:33:02;;;;;;;9.40;4.32;;;;;;;26.76;47.92;100743.66;5121413;27;20557;-47
2023/06/15 08:35:28;;;;;;;6.05;5.10;;;;;;;26.97;46.83;100740.66;5124156;27;20099;-50
2023/06/15 08:37:55;;;;;;;6.38;4.93;;;;;;;27.11;46.31;100738.00;5118920;27;20039;-49
2023/06/15 08:40:22;;;;;;;5.07;3.05;;;;;;;27.24;46.04;100745.22;5123796;27;20413;-47
2023/06/15 08:42:51;;;;;;;5.95;4.40;;;;;;;27.29;45.97;100745.81;5124977;27;20078;-48
2023/06/15 08:45:18;;;;;;;9.70;5.00;;;;;;;27.33;45.45;100742.00;5116294;27;20047;-50
2023/06/15 08:47:46;;;;;;;28.05;5.07;;;;;;;27.40;45.34;100748.66;5106978;27;20530;-49
2023/06/15 08:50:14;;;;;;;8.15;5.25;;;;;;;27.47;44.59;100735.81;5108970;27;20092;-51
2023/06/15 08:52:42;;;;;;;5.93;3.97;;;;;;;27.53;44.55;100742.53;5122763;27;20051;-46
2023/06/15 08:55:10;;;;;;;6.15;3.88;;;;;;;27.55;43.86;100740.63;5122809;27;20058;-50
2023/06/15 08:57:37;;;;;;;6.63;3.80;;;;;;;27.64;45.09;100740.09;5124464;27;20046;-46
2023/06/15 09:00:07;;;;;;;9.25;4.45;;;;;;;27.77;43.89;100745.47;5124103;27;20517;-47
2023/06/15 09:02:39;;;;;;;6.82;3.90;;;;;;;27.90;43.88;100745.53;5116651;27;20082;-48
2023/06/15 09:05:06;;;;;;;5.68;4.07;;;;;;;28.12;43.20;100741.44;5118702;27;20044;-48
2023/06/15 09:07:34;;;;;;;4.70;4.00;;;;;;;28.14;42.88;100742.19;5127366;27;20125;-48
2023/06/15 09:10:19;;;;;;;5.53;3.55;;;;;;;28.19;43.54;100742.75;5124573;27;20122;-47
2023/06/15 09:15:24;;;;;;;5.90;3.05;;;;;;;28.50;41.56;100747.00;5040297;28;20416;-48
2023/06/15 09:17:52;;;;;;;7.25;3.63;;;;;;;28.35;42.40;100739.09;5011447;27;20061;-47
2023/06/15 09:20:20;;;;;;;6.07;3.35;;;;;;;28.29;42.55;100744.81;5027906;28;20053;-48
2023/06/15 09:22:47;;;;;;;6.93;3.13;;;;;;;28.36;43.11;100743.44;5000567;28;20046;-48
2023/06/15 09:27:56;;;;;;;5.53;2.55;;;;;;;28.59;42.72;100741.03;5051570;28;20404;-48
2023/06/15 09:30:40;;;;;;;5.50;3.45;;;;;;;28.68;42.34;100748.41;4997868;28;20062;-47
2023/06/15 09:33:16;;;;;;;6.43;2.85;;;;;;;28.63;41.75;100747.84;5020745;28;20115;-49
2023/06/15 09:36:02;;;;;;;4.10;2.95;;;;;;;28.56;41.42;100735.91;5015431;28;20056;-48
2023/06/15 09:38:32;;;;;;;4.90;3.00;;;;;;;28.65;41.41;100743.28;5013006;28;20042;-50
2023/06/15 09:41:03;;;;;;;5.60;2.72;;;;;;;28.81;41.21;100727.06;4999974;28;20053;-48
2023/06/15 09:43:34;;;;;;;5.70;3.40;;;;;;;28.84;40.90;100734.84;4997532;28;20062;-51
2023/06/15 09:46:04;;;;;;;4.93;3.20;;;;;;;28.80;41.29;100733.38;5005780;28;20127;-50
2023/06/15 09:48:31;;;;;;;7.68;2.70;;;;;;;28.78;41.26;100729.13;5001363;28;20050;-50
2023/06/15 09:51:01;;;;;;;4.22;2.75;;;;;;;28.84;40.88;100728.69;5005746;28;20052;-51
2023/06/15 09:53:30;;;;;;;4.63;2.78;;;;;;;29.04;41.01;100729.16;5005305;28;20116;-50
2023/06/15 09:55:59;;;;;;;6.25;2.80;;;;;;;29.21;41.27;100731.44;5002684;28;20061;-50
2023/06/15 09:58:27;;;;;;;5.60;2.78;;;;;;;29.31;41.18;100730.81;5001104;28;20413;-53
2023/06/15 10:00:57;;;;;;;6.30;4.95;;;;;;;29.45;41.55;100743.16;5001649;28;20637;-52
2023/06/15 10:03:26;;;;;;;3.40;2.30;;;;;;;29.50;40.75;100741.84;5005292;28;20064;-46
2023/06/15 10:05:56;;;;;;;6.65;2.75;;;;;;;29.54;39.55;100733.66;5003718;28;20125;-49
2023/06/15 10:08:25;;;;;;;8.02;2.95;;;;;;;29.58;39.38;100738.66;5004646;28;20046;-51
2023/06/15 10:10:55;;;;;;;8.40;3.03;;;;;;;29.60;39.37;100742.06;5003567;28;20080;-50
2023/06/15 10:13:26;;;;;;;5.97;2.70;;;;;;;29.65;40.19;100733.72;4992326;28;20058;-49
2023/06/15 10:15:57;;;;;;;4.13;2.88;;;;;;;29.71;39.93;100733.28;5012970;28;20050;-51
2023/06/15 10:18:25;;;;;;;6.07;2.72;;;;;;;29.76;39.35;100736.44;5007100;28;20057;-49
2023/06/15 10:20:54;;;;;;;4.80;3.13;;;;;;;29.70;39.40;100731.56;4997791;28;20054;-48
2023/06/15 10:23:25;;;;;;;4.43;2.80;;;;;;;29.84;40.11;100727.88;5004426;28;20058;-51
2023/06/15 10:26:08;;;;;;;3.75;2.20;;;;;;;29.87;39.57;100730.34;5007924;28;20045;-51
2023/06/15 10:28:42;;;;;;;5.40;2.97;;;;;;;29.84;39.27;100721.69;5009144;28;20053;-50
2023/06/15 10:31:25;;;;;;;4.93;2.60;;;;;;;29.84;40.01;100727.03;4985586;28;20060;-51
2023/06/15 10:33:59;;;;;;;6.85;2.63;;;;;;;29.88;39.56;100723.16;4996725;28;20129;-54
2023/06/15 10:36:29;;;;;;;3.92;2.28;;;;;;;29.92;39.16;100729.13;4993091;28;20073;-48
2023/06/15 10:41:33;;;;;;;4.20;2.38;;;;;;;29.94;39.22;100725.38;5044217;27;20397;-51
2023/06/15 10:44:01;;;;;;;4.45;2.50;;;;;;;30.10;39.17;100717.09;5020834;28;20048;-52
2023/06/15 10:46:30;;;;;;;4.38;2.65;;;;;;;30.24;39.21;100716.06;5037009;28;20383;-52
2023/06/15 10:49:06;;;;;;;5.60;2.30;;;;;;;30.21;38.86;100724.31;5018620;28;20056;-48
2023/06/15 10:51:35;;;;;;;3.58;2.70;;;;;;;30.32;37.68;100717.31;5023638;28;20123;-52
2023/06/15 10:54:03;;;;;;;4.40;2.63;;;;;;;30.31;37.66;100712.91;5025195;28;20521;-50
2023/06/15 10:56:30;;;;;;;3.55;2.58;;;;;;;30.39;38.76;100718.50;5036744;28;20053;-49
2023/06/15 10:58:59;;;;;;;5.85;2.38;;;;;;;30.57;37.98;100718.09;5021621;28;20041;-51
2023/06/15 11:01:28;;;;;;;5.38;2.40;;;;;;;30.64;38.29;100713.97;5026332;28;20103;-48
2023/06/15 11:03:56;;;;;;;6.45;3.08;;;;;;;30.80;36.85;100723.50;5025164;28;20049;-50
2023/06/15 11:06:33;;;;;;;7.50;3.25;;;;;;;30.81;37.65;100722.50;5038189;28;20095;-50
2023/06/15 11:09:02;;;;;;;6.28;3.33;;;;;;;30.91;36.64;100710.13;5036273;28;20049;-47
2023/06/15 11:14:07;;;;;;;5.07;3.95;;;;;;;30.84;37.75;100709.78;5060398;27;20405;-48
2023/06/15 11:16:36;;;;;;;5.93;4.03;;;;;;;31.01;37.57;100715.59;5026888;28;20558;-48
2023/06/15 11:24:29;;;;;;;5.55;2.83;;;;;;;31.10;36.53;100711.34;5020997;27;20410;-52
2023/06/15 11:27:02;;;;;;;3.78;2.60;;;;;;;31.03;36.94;100703.81;5023414;28;20049;-52
2023/06/15 11:29:33;;;;;;;4.00;2.88;;;;;;;30.95;37.17;100700.88;4997801;28;20045;-54
2023/06/15 11:32:02;;;;;;;5.32;2.65;;;;;;;30.93;36.98;100697.47;5026973;28;20136;-56
2023/06/15 11:34:30;;;;;;;4.53;3.28;;;;;;;30.95;36.93;100700.88;5018318;28;20050;-54
2023/06/15 11:36:59;;;;;;;6.68;3.58;;;;;;;30.95;37.88;100700.88;5018992;28;20049;-56
2023/06/15 11:39:28;;;;;;;9.70;3.47;;;;;;;30.93;37.30;100691.28;5023820;28;20106;-51
2023/06/15 11:41:56;;;;;;;4.80;2.30;;;;;;;30.78;37.44;100695.06;5018617;28;20038;-51